createdAt,value
2018-11-21T09:35:17.656Z,2.30
2018-11-21T09:36:17.885Z,2.40
2018-11-21T09:37:17.487Z,2.30
2018-11-21T09:38:17.505Z,2.20
2018-11-21T09:39:17.528Z,2.70
2018-11-21T09:40:17.632Z,2.40
2018-11-21T09:41:18.143Z,2.40
2018-11-21T09:42:17.563Z,2.30
2018-11-21T09:43:17.582Z,2.40
2018-11-21T09:44:17.612Z,2.20
2018-11-21T09:45:17.817Z,2.20
2018-11-21T09:46:17.613Z,2.50
2018-11-21T09:47:17.653Z,2.20
2018-11-21T09:48:17.651Z,2.30
2018-11-21T09:49:17.679Z,2.40
2018-11-21T09:50:17.996Z,2.10
2018-11-21T09:51:17.712Z,2.30
2018-11-21T09:52:18.131Z,2.00
2018-11-21T09:53:17.744Z,2.10
2018-11-21T09:54:17.757Z,2.40
2018-11-21T09:55:18.222Z,2.20
2018-11-21T09:56:17.792Z,2.30
2018-11-21T09:57:17.809Z,2.10
2018-11-21T09:58:17.955Z,2.30
2018-11-21T09:59:17.843Z,2.30
2018-11-21T10:00:17.859Z,2.00
2018-11-21T10:01:18.318Z,2.10
2018-11-21T10:02:18.492Z,2.00
2018-11-21T10:03:17.907Z,2.20
2018-11-21T10:04:18.126Z,2.10
2018-11-21T10:05:17.933Z,1.90
2018-11-21T10:06:18.057Z,1.90
2018-11-21T10:07:17.968Z,2.10
2018-11-21T10:08:18.588Z,2.00
2018-11-21T10:09:18.000Z,2.00
2018-11-21T10:10:18.215Z,1.90
2018-11-21T10:11:18.287Z,2.00
2018-11-21T10:12:18.053Z,1.90
2018-11-21T10:13:18.072Z,1.90
2018-11-21T10:14:18.083Z,1.90
2018-11-21T10:15:18.096Z,1.80
2018-11-21T10:16:19.371Z,2.10
2018-11-21T10:17:18.332Z,2.00
2018-11-21T10:18:18.145Z,1.90
2018-11-21T10:19:18.365Z,1.80
2018-11-21T10:20:18.180Z,1.90
2018-11-21T10:21:18.495Z,1.90
2018-11-21T10:22:18.412Z,1.90
2018-11-21T10:23:18.247Z,1.90
2018-11-21T10:24:19.660Z,1.90
2018-11-21T10:25:18.460Z,1.80
2018-11-21T10:26:18.376Z,2.00
2018-11-21T10:27:18.287Z,1.80
2018-11-21T10:28:18.694Z,1.70
2018-11-21T10:29:18.717Z,1.80
2018-11-21T10:30:18.337Z,2.00
2018-11-21T10:31:18.810Z,1.80
2018-11-21T10:32:18.358Z,1.90
2018-11-21T10:33:18.593Z,1.80
2018-11-21T10:34:19.015Z,1.70
2018-11-21T10:35:18.421Z,1.90
2018-11-21T10:36:18.704Z,1.80
2018-11-21T10:37:18.437Z,1.80
2018-11-21T10:38:18.464Z,1.90
2018-11-21T10:39:18.481Z,1.60
2018-11-21T10:40:18.882Z,1.80
2018-11-21T10:41:18.823Z,2.00
2018-11-21T10:42:18.525Z,1.90
2018-11-21T10:43:18.544Z,2.00
2018-11-21T10:44:18.568Z,1.90
2018-11-21T10:45:18.579Z,1.70
2018-11-21T10:46:18.702Z,1.70
2018-11-21T10:47:18.601Z,2.00
2018-11-21T10:48:18.623Z,1.70
2018-11-21T10:49:18.845Z,1.90
2018-11-21T10:50:19.464Z,1.80
2018-11-21T10:51:18.781Z,1.90
2018-11-21T10:52:18.689Z,2.00
2018-11-21T10:53:18.703Z,1.80
2018-11-21T10:54:18.719Z,1.70
2018-11-21T10:55:18.739Z,1.90
2018-11-21T10:56:18.854Z,1.80
2018-11-21T10:57:18.767Z,1.70
2018-11-21T10:58:18.792Z,1.80
2018-11-21T10:59:18.802Z,1.80
2018-11-21T11:00:18.807Z,1.70
2018-11-21T11:01:18.946Z,1.70
2018-11-21T11:02:18.853Z,1.80
2018-11-21T11:03:18.871Z,1.90
2018-11-21T11:04:18.885Z,2.00
2018-11-21T11:05:18.904Z,1.70
2018-11-21T11:06:18.999Z,1.90
2018-11-21T11:07:18.931Z,1.80
2018-11-21T11:08:18.933Z,2.00
2018-11-21T11:09:18.957Z,1.90
2018-11-21T11:10:18.979Z,1.80
2018-11-21T11:11:19.093Z,1.80
2018-11-21T11:12:19.398Z,2.10
2018-11-21T11:13:19.028Z,1.80
2018-11-21T11:14:19.045Z,2.00
2018-11-21T11:15:19.045Z,1.90
2018-11-21T11:16:19.366Z,1.90
2018-11-21T11:17:19.093Z,1.50
2018-11-21T11:18:19.111Z,1.60
2018-11-21T11:19:19.128Z,1.80
2018-11-21T11:20:19.137Z,1.70
2018-11-21T11:21:19.414Z,1.90
2018-11-21T11:22:19.175Z,1.70
2018-11-21T11:23:19.175Z,1.90
2018-11-21T11:24:19.192Z,1.70
2018-11-21T11:25:19.218Z,1.80
2018-11-21T11:26:19.339Z,1.70
2018-11-21T11:27:19.251Z,1.90
2018-11-21T11:28:19.262Z,1.70
2018-11-21T11:29:19.271Z,1.70
2018-11-21T11:30:19.301Z,1.70
2018-11-21T11:31:19.407Z,1.70
2018-11-21T11:32:19.339Z,1.50
2018-11-21T11:33:19.350Z,1.80
2018-11-21T11:34:19.353Z,1.70
2018-11-21T11:35:19.382Z,1.80
2018-11-21T11:36:19.655Z,1.70
2018-11-21T11:37:19.399Z,1.70
2018-11-21T11:38:19.422Z,1.60
2018-11-21T11:39:19.444Z,1.80
2018-11-21T11:40:19.452Z,1.80
2018-11-21T11:41:19.727Z,1.50
2018-11-21T11:42:19.494Z,1.70
2018-11-21T11:43:19.517Z,1.80
2018-11-21T11:44:19.526Z,1.70
2018-11-21T11:45:19.539Z,1.90
2018-11-21T11:46:19.765Z,1.90
2018-11-21T11:47:19.581Z,1.80
2018-11-21T11:48:19.592Z,1.80
2018-11-21T11:49:19.603Z,2.00
2018-11-21T11:50:19.621Z,1.80
2018-11-21T11:51:19.739Z,1.70
2018-11-21T11:52:19.655Z,1.60
2018-11-21T11:53:19.675Z,1.90
2018-11-21T11:54:19.685Z,1.70
2018-11-21T11:55:19.704Z,2.00
2018-11-21T11:56:19.800Z,1.70
2018-11-21T11:57:19.734Z,1.70
2018-11-21T11:58:19.758Z,1.90
2018-11-21T11:59:19.768Z,1.50
2018-11-21T12:00:19.788Z,1.70
2018-11-21T12:01:19.903Z,1.80
2018-11-21T12:02:19.822Z,1.70
2018-11-21T12:03:19.829Z,1.50
2018-11-21T12:04:19.846Z,1.80
2018-11-21T12:05:19.860Z,1.60
2018-11-21T12:06:20.116Z,1.60
2018-11-21T12:07:19.885Z,1.60
2018-11-21T12:08:19.912Z,1.70
2018-11-21T12:09:19.926Z,1.70
2018-11-21T12:10:19.940Z,1.80
2018-11-21T12:11:20.212Z,1.30
2018-11-21T12:12:19.975Z,1.70
2018-11-21T12:13:19.977Z,1.80
2018-11-21T12:14:20.007Z,1.70
2018-11-21T12:15:20.024Z,1.70
2018-11-21T12:16:20.141Z,1.50
2018-11-21T12:17:20.053Z,1.80
2018-11-21T12:18:20.071Z,1.70
2018-11-21T12:19:20.091Z,1.80
2018-11-21T12:20:20.092Z,1.50
2018-11-21T12:21:20.223Z,1.80
2018-11-21T12:22:20.154Z,1.90
2018-11-21T12:23:20.139Z,1.90
2018-11-21T12:24:20.174Z,1.60
2018-11-21T12:25:20.189Z,1.50
2018-11-21T12:26:20.494Z,1.60
2018-11-21T12:27:20.221Z,1.40
2018-11-21T12:28:20.229Z,1.50
2018-11-21T12:29:20.255Z,1.80
2018-11-21T12:30:20.265Z,1.50
2018-11-21T12:31:20.383Z,1.60
2018-11-21T12:32:20.306Z,1.60
2018-11-21T12:33:20.318Z,1.80
2018-11-21T12:34:20.314Z,1.60
2018-11-21T12:35:20.352Z,1.60
2018-11-21T12:36:20.616Z,1.60
2018-11-21T12:37:20.363Z,1.70
2018-11-21T12:38:20.377Z,1.60
2018-11-21T12:39:20.395Z,1.70
2018-11-21T12:40:20.429Z,1.80
2018-11-21T12:41:20.643Z,1.60
2018-11-21T12:42:20.463Z,1.80
2018-11-21T12:43:20.480Z,1.50
2018-11-21T12:44:20.494Z,1.70
2018-11-21T12:45:20.519Z,1.60
2018-11-21T12:46:20.620Z,1.40
2018-11-21T12:47:20.544Z,1.50
2018-11-21T12:48:20.569Z,1.70
2018-11-21T12:49:20.586Z,1.60
2018-11-21T12:50:20.586Z,1.60
2018-11-21T12:51:20.856Z,1.70
2018-11-21T12:52:20.628Z,1.60
2018-11-21T12:53:20.801Z,1.60
2018-11-21T12:54:20.656Z,1.60
2018-11-21T12:55:20.669Z,1.60
2018-11-21T12:56:20.691Z,1.90
2018-11-21T12:57:20.804Z,1.60
2018-11-21T12:58:20.939Z,1.60
2018-11-21T12:59:20.735Z,1.60
2018-11-21T13:00:20.756Z,1.50
2018-11-21T13:01:20.772Z,1.40
2018-11-21T13:02:20.890Z,1.60
2018-11-21T13:03:20.802Z,1.50
2018-11-21T13:04:20.818Z,1.50
2018-11-21T13:05:20.825Z,1.60
2018-11-21T13:06:20.844Z,1.30
2018-11-21T13:07:21.113Z,1.50
2018-11-21T13:08:20.883Z,1.50
2018-11-21T13:09:20.901Z,1.30
2018-11-21T13:10:20.922Z,1.40
2018-11-21T13:11:20.937Z,1.40
2018-11-21T13:12:21.205Z,1.50
2018-11-21T13:13:20.954Z,1.50
2018-11-21T13:14:20.986Z,1.50
2018-11-21T13:15:21.003Z,1.50
2018-11-21T13:16:21.023Z,1.50
2018-11-21T13:17:21.270Z,1.40
2018-11-21T13:18:21.048Z,1.50
2018-11-21T13:19:21.061Z,1.60
2018-11-21T13:20:21.078Z,1.60
2018-11-21T13:21:21.106Z,1.40
2018-11-21T13:22:21.362Z,1.50
2018-11-21T13:23:21.131Z,1.40
2018-11-21T13:24:21.150Z,1.60
2018-11-21T13:25:21.147Z,1.60
2018-11-21T13:26:21.172Z,1.50
2018-11-21T13:27:21.447Z,1.50
2018-11-21T13:28:21.208Z,1.50
2018-11-21T13:29:21.226Z,1.40
2018-11-21T13:30:21.247Z,1.30
2018-11-21T13:31:21.256Z,1.30
2018-11-21T13:32:21.529Z,1.60
2018-11-21T13:33:21.403Z,1.50
2018-11-21T13:34:21.310Z,1.50
2018-11-21T13:35:21.324Z,1.50
2018-11-21T13:36:21.529Z,1.40
2018-11-21T13:37:21.461Z,1.40
2018-11-21T13:38:23.412Z,1.50
2018-11-21T13:39:21.389Z,1.40
2018-11-21T13:40:21.409Z,1.30
2018-11-21T13:41:21.426Z,1.40
2018-11-21T13:42:21.547Z,1.40
2018-11-21T13:43:21.456Z,1.40
2018-11-21T13:44:21.471Z,1.20
2018-11-21T13:45:21.492Z,1.50
2018-11-21T13:46:21.506Z,1.50
2018-11-21T13:47:21.523Z,1.20
2018-11-21T13:48:21.637Z,1.50
2018-11-21T13:49:21.556Z,1.40
2018-11-21T13:50:21.568Z,1.40
2018-11-21T13:51:21.584Z,1.50
2018-11-21T13:52:21.608Z,1.50
2018-11-21T13:53:21.723Z,1.40
2018-11-21T13:54:21.633Z,1.40
2018-11-21T13:55:21.657Z,1.40
2018-11-21T13:56:21.675Z,1.40
2018-11-21T13:57:21.678Z,1.20
2018-11-21T13:58:22.004Z,1.20
2018-11-21T13:59:21.725Z,1.50
2018-11-21T14:00:21.737Z,1.30
2018-11-21T14:01:21.964Z,1.30
2018-11-21T14:02:21.772Z,1.50
2018-11-21T14:03:21.789Z,1.40
2018-11-21T14:04:21.903Z,1.40
2018-11-21T14:05:21.823Z,1.30
2018-11-21T14:06:21.819Z,1.30
2018-11-21T14:07:21.848Z,1.50
2018-11-21T14:08:21.868Z,1.50
2018-11-21T14:09:21.981Z,1.50
2018-11-21T14:10:21.893Z,1.40
2018-11-21T14:11:21.928Z,1.50
2018-11-21T14:12:21.934Z,1.30
2018-11-21T14:13:21.950Z,1.40
2018-11-21T14:14:22.053Z,1.40
2018-11-21T14:15:22.058Z,1.40
2018-11-21T14:16:22.001Z,1.50
2018-11-21T14:17:27.553Z,1.50
2018-11-21T14:18:22.038Z,1.40
2018-11-21T14:19:22.154Z,1.40
2018-11-21T14:20:22.064Z,1.40
2018-11-21T14:21:22.087Z,1.50
2018-11-21T14:22:22.095Z,1.60
2018-11-21T14:23:22.116Z,1.30
2018-11-21T14:24:22.365Z,1.30
2018-11-21T14:25:22.152Z,1.40
2018-11-21T14:26:22.169Z,1.30
2018-11-21T14:27:22.168Z,1.50
2018-11-21T14:28:22.200Z,1.50
2018-11-21T14:29:22.449Z,1.40
2018-11-21T14:30:22.238Z,1.20
2018-11-21T14:31:22.247Z,1.50
2018-11-21T14:32:22.267Z,1.40
2018-11-21T14:33:22.280Z,1.40
2018-11-21T14:34:22.549Z,1.30
2018-11-21T14:35:22.294Z,1.40
2018-11-21T14:36:22.335Z,1.60
2018-11-21T14:37:22.350Z,1.20
2018-11-21T14:38:22.350Z,1.40
2018-11-21T14:39:22.484Z,1.40
2018-11-21T14:40:22.383Z,1.40
2018-11-21T14:41:22.400Z,1.40
2018-11-21T14:42:22.427Z,1.30
2018-11-21T14:43:22.434Z,1.30
2018-11-21T14:44:22.764Z,1.30
2018-11-21T14:45:22.461Z,1.10
2018-11-21T14:46:22.495Z,1.20
2018-11-21T14:47:22.517Z,1.50
2018-11-21T14:48:22.528Z,1.20
2018-11-21T14:49:22.653Z,1.40
2018-11-21T14:50:22.544Z,1.40
2018-11-21T14:51:22.585Z,1.40
2018-11-21T14:52:22.600Z,1.50
2018-11-21T14:53:22.610Z,1.30
2018-11-21T14:54:22.727Z,1.30
2018-11-21T14:55:22.646Z,1.40
2018-11-21T14:56:22.662Z,1.60
2018-11-21T14:57:22.677Z,1.50
2018-11-21T14:58:22.696Z,1.30
2018-11-21T14:59:22.955Z,1.60
2018-11-21T15:00:22.732Z,1.20
2018-11-21T15:01:22.747Z,1.40
2018-11-21T15:02:22.743Z,1.30
2018-11-21T15:03:22.783Z,1.40
2018-11-21T15:04:22.795Z,1.30
2018-11-21T15:05:22.912Z,1.20
2018-11-21T15:06:22.830Z,1.40
2018-11-21T15:07:22.827Z,1.40
2018-11-21T15:08:22.865Z,1.30
2018-11-21T15:09:22.882Z,1.30
2018-11-21T15:10:23.144Z,1.30
2018-11-21T15:11:22.915Z,1.20
2018-11-21T15:12:23.131Z,1.40
2018-11-21T15:13:22.946Z,1.50
2018-11-21T15:14:22.964Z,1.40
2018-11-21T15:15:23.073Z,1.20
2018-11-21T15:16:22.995Z,1.30
2018-11-21T15:17:23.002Z,1.30
2018-11-21T15:18:23.015Z,1.30
2018-11-21T15:19:23.037Z,1.40
2018-11-21T15:20:23.166Z,1.40
2018-11-21T15:21:23.082Z,1.40
2018-11-21T15:22:23.092Z,1.30
2018-11-21T15:23:23.096Z,1.10
2018-11-21T15:24:23.129Z,1.30
2018-11-21T15:25:23.242Z,1.50
2018-11-21T15:26:23.166Z,1.50
2018-11-21T15:27:23.165Z,1.20
2018-11-21T15:28:23.195Z,1.40
2018-11-21T15:29:23.415Z,1.20
2018-11-21T15:30:23.337Z,1.20
2018-11-21T15:31:23.250Z,1.50
2018-11-21T15:32:23.256Z,1.50
2018-11-21T15:33:24.082Z,1.20
2018-11-21T15:34:23.293Z,1.50
2018-11-21T15:35:23.412Z,1.30
2018-11-21T15:36:23.332Z,1.40
2018-11-21T15:37:23.343Z,1.20
2018-11-21T15:38:23.370Z,1.40
2018-11-21T15:39:23.583Z,1.30
2018-11-21T15:40:23.890Z,1.40
2018-11-21T15:41:23.615Z,1.50
2018-11-21T15:42:23.427Z,1.50
2018-11-21T15:43:23.444Z,1.50
2018-11-21T15:44:23.460Z,1.40
2018-11-21T15:45:23.481Z,1.30
2018-11-21T15:46:23.584Z,1.60
2018-11-21T15:47:23.519Z,1.70
2018-11-21T15:48:23.530Z,1.50
2018-11-21T15:49:23.549Z,1.30
2018-11-21T15:50:23.774Z,1.20
2018-11-21T15:51:23.683Z,1.30
2018-11-21T15:52:23.601Z,1.30
2018-11-21T15:53:23.615Z,1.30
2018-11-21T15:54:23.663Z,1.50
2018-11-21T15:55:23.646Z,1.70
2018-11-21T15:56:23.779Z,1.60
2018-11-21T15:57:23.680Z,1.50
2018-11-21T15:58:23.699Z,1.80
2018-11-21T15:59:23.718Z,1.70
2018-11-21T16:00:23.723Z,1.50
2018-11-21T16:01:23.832Z,1.60
2018-11-21T16:02:23.764Z,1.40
2018-11-21T16:03:23.787Z,1.80
2018-11-21T16:04:23.791Z,1.70
2018-11-21T16:05:23.804Z,1.40
2018-11-21T16:06:24.070Z,1.70
2018-11-21T16:07:23.849Z,1.80
2018-11-21T16:08:23.869Z,1.60
2018-11-21T16:09:23.874Z,1.60
2018-11-21T16:10:23.910Z,1.40
2018-11-21T16:11:24.167Z,1.70
2018-11-21T16:12:23.925Z,1.60
2018-11-21T16:13:23.948Z,1.60
2018-11-21T16:14:23.954Z,1.70
2018-11-21T16:15:24.010Z,1.60
2018-11-21T16:16:24.086Z,1.40
2018-11-21T16:17:24.020Z,1.70
2018-11-21T16:18:24.031Z,1.40
2018-11-21T16:19:24.049Z,1.50
2018-11-21T16:20:24.075Z,1.60
2018-11-21T16:21:24.186Z,1.80
2018-11-21T16:22:24.111Z,1.70
2018-11-21T16:23:24.120Z,1.60
2018-11-21T16:24:24.127Z,1.70
2018-11-21T16:25:24.154Z,1.70
2018-11-21T16:26:24.408Z,1.80
2018-11-21T16:27:24.187Z,1.50
2018-11-21T16:28:24.206Z,1.60
2018-11-21T16:29:24.205Z,1.40
2018-11-21T16:30:24.246Z,1.60
2018-11-21T16:31:24.503Z,1.60
2018-11-21T16:32:24.271Z,1.60
2018-11-21T16:33:24.289Z,1.60
2018-11-21T16:34:24.324Z,1.80
2018-11-21T16:35:24.324Z,1.60
2018-11-21T16:36:27.277Z,1.60
2018-11-21T16:37:24.363Z,1.70
2018-11-21T16:38:24.379Z,1.60
2018-11-21T16:39:24.371Z,1.70
2018-11-21T16:40:24.397Z,1.70
2018-11-21T16:41:24.526Z,1.80
2018-11-21T16:42:24.444Z,1.60
2018-11-21T16:43:24.457Z,1.60
2018-11-21T16:44:24.477Z,1.60
2018-11-21T16:45:24.488Z,1.70
2018-11-21T16:46:24.604Z,1.70
2018-11-21T16:47:24.518Z,1.70
2018-11-21T16:48:24.541Z,1.60
2018-11-21T16:49:24.559Z,1.70
2018-11-21T16:50:24.575Z,1.70
2018-11-21T16:51:24.892Z,1.70
2018-11-21T16:52:24.613Z,1.80
2018-11-21T16:53:24.628Z,1.70
2018-11-21T16:54:24.645Z,1.90
2018-11-21T16:55:24.646Z,1.70
2018-11-21T16:56:24.678Z,1.80
2018-11-21T16:57:24.793Z,1.80
2018-11-21T16:58:24.713Z,1.70
2018-11-21T16:59:24.729Z,1.80
2018-11-21T17:00:24.733Z,1.80
2018-11-21T17:01:24.758Z,1.70
2018-11-21T17:02:24.778Z,1.70
2018-11-21T17:03:25.045Z,1.90
2018-11-21T17:04:24.802Z,1.80
2018-11-21T17:05:24.817Z,2.00
2018-11-21T17:06:24.846Z,2.10
2018-11-21T17:07:26.022Z,2.00
2018-11-21T17:08:24.977Z,2.00
2018-11-21T17:09:24.894Z,1.70
2018-11-21T17:10:24.918Z,1.90
2018-11-21T17:11:24.933Z,1.80
2018-11-21T17:12:24.948Z,2.10
2018-11-21T17:13:25.219Z,1.80
2018-11-21T17:14:24.983Z,1.80
2018-11-21T17:15:24.998Z,1.90
2018-11-21T17:16:25.017Z,2.00
2018-11-21T17:17:25.034Z,1.80
2018-11-21T17:18:25.303Z,1.80
2018-11-21T17:19:25.067Z,1.70
2018-11-21T17:20:25.084Z,1.90
2018-11-21T17:21:25.100Z,2.00
2018-11-21T17:22:26.137Z,1.80
2018-11-21T17:23:25.239Z,1.60
2018-11-21T17:24:25.161Z,1.90
2018-11-21T17:25:25.170Z,1.70
2018-11-21T17:26:25.181Z,1.90
2018-11-21T17:27:25.204Z,2.10
2018-11-21T17:28:25.455Z,1.90
2018-11-21T17:29:25.234Z,2.20
2018-11-21T17:30:25.255Z,1.90
2018-11-21T17:31:25.268Z,1.90
2018-11-21T17:32:25.288Z,1.90
2018-11-21T17:33:25.558Z,2.00
2018-11-21T17:34:25.324Z,2.00
2018-11-21T17:35:25.343Z,1.90
2018-11-21T17:36:25.358Z,1.70
2018-11-21T17:37:25.377Z,2.10
2018-11-21T17:38:26.355Z,2.00
2018-11-21T17:39:25.410Z,2.10
2018-11-21T17:40:25.422Z,2.20
2018-11-21T17:41:25.438Z,2.20
2018-11-21T17:42:25.456Z,1.90
2018-11-21T17:43:25.575Z,2.00
2018-11-21T17:44:25.488Z,1.90
2018-11-21T17:45:25.509Z,2.00
2018-11-21T17:46:25.507Z,2.00
2018-11-21T17:47:25.537Z,2.00
2018-11-21T17:48:25.813Z,2.00
2018-11-21T17:49:25.559Z,2.00
2018-11-21T17:50:25.592Z,1.90
2018-11-21T17:51:26.704Z,1.80
2018-11-21T17:52:25.626Z,2.00
2018-11-21T17:53:25.651Z,2.10
2018-11-21T17:54:25.765Z,1.90
2018-11-21T17:55:25.671Z,1.90
2018-11-21T17:56:25.676Z,2.00
2018-11-21T17:57:27.979Z,2.20
2018-11-21T17:58:25.729Z,2.10
2018-11-21T17:59:25.999Z,2.20
2018-11-21T18:00:25.763Z,1.90
2018-11-21T18:01:25.777Z,2.00
2018-11-21T18:02:25.797Z,2.10
2018-11-21T18:03:25.811Z,1.90
2018-11-21T18:04:26.069Z,2.00
2018-11-21T18:05:25.831Z,2.20
2018-11-21T18:06:25.860Z,2.10
2018-11-21T18:07:25.869Z,2.20
2018-11-21T18:08:25.895Z,2.40
2018-11-21T18:09:26.158Z,2.10
2018-11-21T18:10:25.937Z,2.00
2018-11-21T18:11:25.952Z,2.30
2018-11-21T18:12:25.969Z,2.20
2018-11-21T18:13:25.981Z,2.50
2018-11-21T18:14:26.160Z,2.20
2018-11-21T18:15:26.012Z,2.20
2018-11-21T18:16:26.042Z,2.20
2018-11-21T18:17:26.052Z,2.00
2018-11-21T18:18:26.056Z,2.20
2018-11-21T18:19:26.191Z,2.20
2018-11-21T18:20:26.105Z,2.40
2018-11-21T18:21:26.122Z,2.00
2018-11-21T18:22:26.142Z,2.20
2018-11-21T18:23:26.158Z,2.20
2018-11-21T18:24:26.375Z,2.20
2018-11-21T18:25:26.176Z,2.10
2018-11-21T18:26:26.201Z,2.50
2018-11-21T18:27:26.220Z,2.20
2018-11-21T18:28:26.228Z,2.30
2018-11-21T18:29:26.359Z,2.30
2018-11-21T18:30:26.269Z,2.60
2018-11-21T18:31:26.293Z,2.10
2018-11-21T18:32:26.300Z,2.40
2018-11-21T18:33:26.332Z,2.10
2018-11-21T18:34:26.449Z,2.20
2018-11-21T18:35:26.359Z,2.40
2018-11-21T18:36:26.381Z,2.20
2018-11-21T18:37:26.392Z,2.20
2018-11-21T18:38:26.415Z,2.30
2018-11-21T18:39:26.519Z,2.20
2018-11-21T18:40:26.445Z,2.20
2018-11-21T18:41:26.463Z,2.30
2018-11-21T18:42:26.481Z,2.20
2018-11-21T18:43:26.491Z,2.30
2018-11-21T18:44:26.618Z,2.20
2018-11-21T18:45:26.525Z,2.40
2018-11-21T18:46:26.556Z,2.50
2018-11-21T18:47:26.564Z,2.10
2018-11-21T18:48:26.589Z,2.30
2018-11-21T18:49:26.832Z,2.50
2018-11-21T18:50:26.625Z,2.50
2018-11-21T18:51:26.637Z,2.30
2018-11-21T18:52:26.948Z,2.40
2018-11-21T18:53:26.665Z,2.50
2018-11-21T18:54:26.666Z,2.70
2018-11-21T18:55:26.802Z,2.60
2018-11-21T18:56:26.718Z,2.70
2018-11-21T18:57:26.720Z,2.60
2018-11-21T18:58:26.753Z,2.50
2018-11-21T18:59:26.770Z,2.50
2018-11-21T19:00:26.793Z,2.50
2018-11-21T19:01:27.053Z,2.60
2018-11-21T19:02:26.809Z,2.70
2018-11-21T19:03:26.848Z,2.40
2018-11-21T19:04:26.844Z,2.70
2018-11-21T19:05:27.068Z,2.80
2018-11-21T19:06:26.977Z,2.40
2018-11-21T19:07:26.909Z,2.30
2018-11-21T19:08:26.927Z,2.60
2018-11-21T19:09:26.939Z,2.40
2018-11-21T19:10:26.958Z,2.40
2018-11-21T19:12:27.236Z,2.60
2018-11-21T19:13:26.995Z,2.40
2018-11-21T19:14:27.028Z,2.50
2018-11-21T19:15:27.045Z,2.50
2018-11-21T19:16:27.059Z,2.50
2018-11-21T19:17:27.331Z,2.40
2018-11-21T19:18:27.099Z,2.50
2018-11-21T19:19:27.117Z,2.70
2018-11-21T19:20:27.137Z,2.50
2018-11-21T19:21:27.153Z,2.40
2018-11-21T19:22:27.262Z,2.60
2018-11-21T19:23:27.164Z,2.50
2018-11-21T19:24:27.198Z,2.80
2018-11-21T19:25:27.222Z,2.70
2018-11-21T19:26:27.230Z,2.50
2018-11-21T19:27:27.347Z,2.70
2018-11-21T19:28:27.253Z,2.40
2018-11-21T19:29:27.290Z,2.70
2018-11-21T19:30:27.296Z,2.80
2018-11-21T19:31:29.775Z,2.70
2018-11-21T19:32:27.420Z,2.70
2018-11-21T19:33:27.341Z,2.70
2018-11-21T19:34:27.372Z,2.70
2018-11-21T19:35:27.385Z,2.70
2018-11-21T19:36:27.411Z,2.40
2018-11-21T19:37:27.517Z,2.80
2018-11-21T19:38:27.442Z,2.80
2018-11-21T19:39:27.454Z,2.50
2018-11-21T19:40:27.471Z,3.00
2018-11-21T19:41:27.493Z,2.70
2018-11-21T19:42:27.757Z,2.80
2018-11-21T19:43:27.521Z,2.80
2018-11-21T19:44:27.544Z,2.90
2018-11-21T19:45:27.569Z,2.70
2018-11-21T19:46:27.565Z,2.80
2018-11-21T19:47:27.840Z,2.80
2018-11-21T19:48:27.608Z,2.70
2018-11-21T19:49:33.179Z,2.70
2018-11-21T19:50:27.669Z,2.60
2018-11-21T19:51:27.661Z,2.70
2018-11-21T19:52:27.676Z,2.70
2018-11-21T19:53:27.795Z,2.50
2018-11-21T19:54:27.708Z,2.60
2018-11-21T19:55:27.714Z,2.60
2018-11-21T19:56:27.747Z,2.60
2018-11-21T19:57:27.753Z,2.80
2018-11-21T19:58:27.772Z,2.40
2018-11-21T19:59:27.897Z,2.40
2018-11-21T20:00:27.817Z,2.70
2018-11-21T20:02:11.431Z,2.50
2018-11-21T20:03:11.457Z,2.50
2018-11-21T20:04:11.459Z,2.80
2018-11-21T20:05:11.738Z,2.60
2018-11-21T20:06:11.509Z,2.70
2018-11-21T20:07:11.510Z,2.60
2018-11-21T20:08:11.541Z,2.70
2018-11-21T20:09:11.611Z,2.60
2018-11-21T20:10:11.669Z,2.60
2018-11-21T20:11:11.592Z,2.40
2018-11-21T20:12:11.610Z,2.60
2018-11-21T20:13:11.720Z,2.50
2018-11-21T20:14:11.656Z,2.40
2018-11-21T20:15:11.765Z,2.70
2018-11-21T20:16:11.677Z,2.70
2018-11-21T20:17:11.695Z,2.80
2018-11-21T20:18:11.713Z,2.90
2018-11-21T20:19:11.731Z,2.70
2018-11-21T20:20:11.827Z,2.80
2018-11-21T20:21:11.812Z,2.80
2018-11-21T20:22:11.777Z,2.90
2018-11-21T20:23:11.794Z,2.60
2018-11-21T20:24:11.808Z,2.80
2018-11-21T20:25:12.031Z,2.70
2018-11-21T20:26:11.849Z,2.70
2018-11-21T20:27:11.877Z,2.80
2018-11-21T20:28:11.882Z,2.90
2018-11-21T20:29:11.898Z,2.70
2018-11-21T20:30:11.999Z,2.70
2018-11-21T20:31:11.946Z,2.70
2018-11-21T20:32:11.932Z,2.90
2018-11-21T20:33:11.955Z,3.20
2018-11-21T20:34:11.981Z,2.80
2018-11-21T20:35:12.255Z,2.90
2018-11-21T20:36:12.018Z,2.70
2018-11-21T20:37:12.039Z,2.80
2018-11-21T20:38:12.060Z,2.70
2018-11-21T20:39:12.055Z,2.90
2018-11-21T20:41:12.353Z,2.90
2018-11-21T20:42:12.109Z,2.80
2018-11-21T20:43:12.123Z,3.00
2018-11-21T20:44:12.160Z,2.80
2018-11-21T20:45:12.166Z,3.10
2018-11-21T20:46:12.444Z,3.10
2018-11-21T20:47:12.206Z,2.70
2018-11-21T20:48:12.226Z,2.90
2018-11-21T20:49:12.265Z,2.70
2018-11-21T20:50:12.255Z,2.70
2018-11-21T20:51:12.373Z,2.90
2018-11-21T20:52:12.283Z,2.90
2018-11-21T20:53:12.310Z,2.80
2018-11-21T20:54:12.327Z,2.90
2018-11-21T20:55:12.325Z,2.60
2018-11-21T20:56:12.559Z,2.90
2018-11-21T20:57:12.375Z,2.80
2018-11-21T20:58:12.384Z,2.80
2018-11-21T20:59:12.417Z,3.00
2018-11-21T21:00:12.430Z,3.00
2018-11-21T21:01:12.593Z,2.90
2018-11-21T21:02:12.460Z,2.70
2018-11-21T21:03:12.478Z,2.80
2018-11-21T21:04:12.493Z,2.90
2018-11-21T21:05:12.519Z,2.90
2018-11-21T21:06:12.784Z,3.10
2018-11-21T21:07:12.550Z,3.00
2018-11-21T21:08:12.563Z,2.80
2018-11-21T21:09:12.580Z,2.60
2018-11-21T21:10:12.600Z,2.90
2018-11-21T21:11:12.614Z,2.90
2018-11-21T21:12:12.729Z,2.80
2018-11-21T21:13:12.643Z,2.70
2018-11-21T21:14:12.650Z,2.90
2018-11-21T21:15:12.687Z,2.90
2018-11-21T21:16:12.706Z,3.20
2018-11-21T21:17:12.825Z,2.60
2018-11-21T21:18:12.737Z,2.80
2018-11-21T21:19:12.744Z,2.70
2018-11-21T21:20:12.766Z,2.90
2018-11-21T21:21:15.843Z,3.00
2018-11-21T21:22:18.420Z,2.90
2018-11-21T21:23:12.803Z,2.70
2018-11-21T21:24:12.845Z,2.90
2018-11-21T21:25:12.854Z,2.70
2018-11-21T21:26:12.870Z,3.00
2018-11-21T21:27:12.984Z,3.00
2018-11-21T21:28:12.903Z,3.00
2018-11-21T21:29:12.919Z,2.60
2018-11-21T21:30:12.945Z,3.20
2018-11-21T21:31:12.962Z,2.90
2018-11-21T21:32:13.075Z,2.90
2018-11-21T21:33:12.990Z,3.00
2018-11-21T21:34:13.009Z,2.70
2018-11-21T21:35:13.017Z,2.80
2018-11-21T21:36:13.040Z,2.90
2018-11-21T21:37:13.161Z,2.90
2018-11-21T21:38:13.072Z,2.70
2018-11-21T21:39:13.091Z,2.60
2018-11-21T21:40:13.107Z,2.70
2018-11-21T21:41:13.112Z,2.80
2018-11-21T21:42:13.239Z,3.00
2018-11-21T21:43:13.163Z,2.70
2018-11-21T21:44:13.181Z,2.90
2018-11-21T21:45:13.182Z,2.90
2018-11-21T21:46:13.214Z,2.80
2018-11-21T21:47:13.307Z,2.60
2018-11-21T21:48:13.242Z,2.70
2018-11-21T21:49:13.266Z,2.60
2018-11-21T21:50:13.277Z,2.70
2018-11-21T21:51:13.285Z,2.50
2018-11-21T21:52:13.548Z,2.70
2018-11-21T21:53:13.335Z,2.60
2018-11-21T21:54:13.349Z,2.70
2018-11-21T21:55:13.367Z,2.70
2018-11-21T21:56:13.380Z,2.40
2018-11-21T21:57:13.650Z,2.50
2018-11-21T21:58:13.416Z,2.40
2018-11-21T21:59:13.423Z,2.30
2018-11-21T22:00:13.449Z,2.30
2018-11-21T22:01:13.466Z,2.80
2018-11-21T22:02:13.580Z,2.40
2018-11-21T22:03:13.503Z,2.30
2018-11-21T22:04:13.512Z,2.30
2018-11-21T22:05:13.535Z,2.30
2018-11-21T22:06:13.548Z,2.30
2018-11-21T22:07:13.666Z,2.00
2018-11-21T22:08:13.571Z,2.20
2018-11-21T22:09:13.596Z,2.20
2018-11-21T22:10:13.613Z,2.30
2018-11-21T22:11:13.621Z,2.40
2018-11-21T22:12:13.750Z,2.30
2018-11-21T22:13:13.665Z,2.20
2018-11-21T22:14:13.688Z,2.30
2018-11-21T22:15:13.697Z,2.30
2018-11-21T22:16:13.717Z,2.30
2018-11-21T22:17:13.738Z,2.20
2018-11-21T22:18:13.835Z,2.40
2018-11-21T22:19:13.768Z,2.20
2018-11-21T22:20:13.773Z,2.20
2018-11-21T22:21:13.790Z,2.10
2018-11-21T22:22:13.815Z,2.10
2018-11-21T22:23:14.091Z,2.10
2018-11-21T22:24:13.838Z,2.00
2018-11-21T22:25:13.879Z,2.10
2018-11-21T22:26:13.868Z,2.10
2018-11-21T22:27:13.902Z,2.20
2018-11-21T22:28:14.019Z,2.20
2018-11-21T22:29:13.939Z,2.20
2018-11-21T22:30:13.957Z,2.00
2018-11-21T22:31:13.971Z,2.00
2018-11-21T22:32:13.982Z,2.10
2018-11-21T22:33:14.103Z,2.00
2018-11-21T22:34:14.024Z,1.70
2018-11-21T22:35:14.045Z,2.10
2018-11-21T22:36:14.060Z,2.20
2018-11-21T22:37:14.071Z,2.00
2018-11-21T22:38:14.342Z,2.00
2018-11-21T22:39:14.107Z,2.20
2018-11-21T22:40:14.112Z,2.10
2018-11-21T22:41:14.140Z,2.00
2018-11-21T22:42:14.159Z,1.80
2018-11-21T22:43:14.422Z,2.10
2018-11-21T22:44:14.188Z,2.00
2018-11-21T22:45:14.190Z,1.90
2018-11-21T22:46:14.223Z,1.90
2018-11-21T22:47:14.226Z,2.00
2018-11-21T22:48:14.489Z,2.10
2018-11-21T22:49:14.277Z,1.90
2018-11-21T22:50:14.295Z,2.00
2018-11-21T22:51:14.307Z,1.70
2018-11-21T22:52:14.523Z,1.90
2018-11-21T22:53:14.587Z,2.00
2018-11-21T22:54:14.353Z,2.10
2018-11-21T22:55:14.374Z,1.90
2018-11-21T22:56:14.384Z,1.90